createdAt,value
2018-10-09T00:01:17.689Z,20.72
2018-10-09T00:03:46.060Z,22.55
2018-10-09T00:06:14.876Z,22.00
2018-10-09T00:08:44.537Z,21.73
2018-10-09T00:11:13.050Z,22.65
2018-10-09T00:13:41.424Z,23.85
2018-10-09T00:16:09.861Z,22.52
2018-10-09T00:18:38.209Z,24.52
2018-10-09T00:21:06.495Z,23.20
2018-10-09T00:23:34.763Z,24.40
2018-10-09T00:26:03.501Z,25.25
2018-10-09T00:28:31.749Z,26.60
2018-10-09T00:31:00.186Z,23.45
2018-10-09T00:33:28.435Z,24.67
2018-10-09T00:35:57.524Z,26.60
2018-10-09T00:38:25.438Z,25.82
2018-10-09T00:40:53.830Z,27.42
2018-10-09T00:43:22.384Z,26.97
2018-10-09T00:45:51.085Z,26.60
2018-10-09T00:48:19.647Z,28.00
2018-10-09T00:50:48.099Z,30.45
2018-10-09T00:53:16.524Z,32.85
2018-10-09T00:55:44.785Z,34.05
2018-10-09T00:58:13.307Z,35.98
2018-10-09T01:00:41.650Z,40.58
2018-10-09T01:03:09.908Z,39.40
2018-10-09T01:05:38.412Z,37.80
2018-10-09T01:08:06.605Z,34.40
2018-10-09T01:10:35.150Z,33.20
2018-10-09T01:13:03.408Z,33.05
2018-10-09T01:15:32.204Z,34.75
2018-10-09T01:18:00.482Z,31.52
2018-10-09T01:20:33.080Z,29.32
2018-10-09T01:23:03.508Z,32.15
2018-10-09T01:25:32.209Z,33.70
2018-10-09T01:28:00.678Z,35.60
2018-10-09T01:30:28.921Z,33.18
2018-10-09T01:32:57.273Z,32.13
2018-10-09T01:35:25.681Z,27.35
2018-10-09T01:37:54.073Z,33.10
2018-10-09T01:40:22.199Z,32.08
2018-10-09T01:42:50.757Z,31.90
2018-10-09T01:45:19.239Z,32.13
2018-10-09T01:47:47.605Z,33.75
2018-10-09T01:50:15.996Z,31.97
2018-10-09T01:52:44.537Z,32.55
2018-10-09T01:55:12.910Z,30.80
2018-10-09T01:57:41.064Z,30.68
2018-10-09T02:00:10.436Z,32.03
2018-10-09T02:02:38.918Z,34.70
2018-10-09T02:05:07.161Z,35.43
2018-10-09T02:07:35.419Z,34.25
2018-10-09T02:10:03.948Z,35.03
2018-10-09T02:12:32.627Z,31.00
2018-10-09T02:15:00.878Z,28.10
2018-10-09T02:17:29.412Z,28.90
2018-10-09T02:19:57.818Z,25.45
2018-10-09T02:22:26.038Z,26.33
2018-10-09T02:24:54.087Z,24.10
2018-10-09T02:27:22.860Z,24.90
2018-10-09T02:29:51.448Z,24.75
2018-10-09T02:32:19.928Z,22.13
2018-10-09T02:34:48.131Z,22.58
2018-10-09T02:37:16.339Z,22.32
2018-10-09T02:39:44.747Z,21.90
2018-10-09T02:42:13.444Z,21.93
2018-10-09T02:44:41.718Z,21.27
2018-10-09T02:47:10.087Z,22.67
2018-10-09T02:49:38.493Z,22.70
2018-10-09T02:52:06.856Z,20.80
2018-10-09T02:54:35.245Z,22.80
2018-10-09T02:57:03.686Z,23.32
2018-10-09T02:59:32.394Z,20.15
2018-10-09T03:02:00.781Z,22.05
2018-10-09T03:04:29.047Z,21.52
2018-10-09T03:06:57.212Z,21.10
2018-10-09T03:09:25.516Z,22.50
2018-10-09T03:11:53.973Z,21.27
2018-10-09T03:14:22.671Z,23.30
2018-10-09T03:16:51.907Z,22.15
2018-10-09T03:19:20.224Z,21.02
2018-10-09T03:21:48.323Z,19.62
2018-10-09T03:24:16.341Z,17.35
2018-10-09T03:26:45.008Z,18.30
2018-10-09T03:29:13.156Z,17.25
2018-10-09T03:31:41.114Z,17.87
2018-10-09T03:34:09.568Z,17.30
2018-10-09T03:36:38.085Z,17.80
2018-10-09T03:39:07.081Z,16.15
2018-10-09T03:41:35.420Z,18.42
2018-10-09T03:44:04.022Z,18.17
2018-10-09T03:46:32.498Z,19.40
2018-10-09T03:49:01.000Z,20.15
2018-10-09T03:51:29.601Z,20.25
2018-10-09T03:53:58.280Z,21.05
2018-10-09T03:56:26.707Z,19.98
2018-10-09T03:58:55.527Z,19.50
2018-10-09T04:01:23.992Z,19.32
2018-10-09T04:03:52.676Z,17.25
2018-10-09T04:06:21.095Z,17.37
2018-10-09T04:08:49.646Z,18.17
2018-10-09T04:11:18.104Z,19.98
2018-10-09T04:13:47.261Z,18.20
2018-10-09T04:16:15.568Z,20.62
2018-10-09T04:18:44.133Z,17.25
2018-10-09T04:21:12.466Z,20.05
2018-10-09T04:23:40.675Z,19.95
2018-10-09T04:26:09.342Z,19.90
2018-10-09T04:28:38.092Z,19.20
2018-10-09T04:31:06.487Z,18.80
2018-10-09T04:33:35.003Z,20.32
2018-10-09T04:36:03.383Z,22.73
2018-10-09T04:38:31.828Z,22.17
2018-10-09T04:41:00.211Z,23.60
2018-10-09T04:43:28.381Z,23.32
2018-10-09T04:45:56.968Z,23.73
2018-10-09T04:48:25.273Z,22.95
2018-10-09T04:50:54.948Z,23.18
2018-10-09T04:53:23.339Z,24.47
2018-10-09T04:55:52.006Z,23.67
2018-10-09T04:58:20.451Z,23.75
2018-10-09T05:00:49.428Z,22.80
2018-10-09T05:03:17.811Z,23.10
2018-10-09T05:05:45.951Z,22.25
2018-10-09T05:08:14.003Z,22.77
2018-10-09T05:10:42.320Z,23.62
2018-10-09T05:13:10.664Z,22.07
2018-10-09T05:15:39.140Z,20.57
2018-10-09T05:18:07.447Z,19.67
2018-10-09T05:20:35.805Z,20.37
2018-10-09T05:23:04.145Z,20.40
2018-10-09T05:25:32.453Z,21.75
2018-10-09T05:28:00.843Z,21.17
2018-10-09T05:30:29.325Z,20.85
2018-10-09T05:32:57.563Z,22.65
2018-10-09T05:35:25.700Z,21.85
2018-10-09T05:37:53.859Z,20.80
2018-10-09T05:40:22.274Z,19.15
2018-10-09T05:42:50.992Z,17.48
2018-10-09T05:45:19.604Z,17.10
2018-10-09T05:47:47.848Z,17.55
2018-10-09T05:50:16.433Z,18.48
2018-10-09T05:52:44.936Z,18.65
2018-10-09T05:55:13.301Z,18.45
2018-10-09T05:57:41.806Z,19.45
2018-10-09T06:00:10.691Z,21.10
2018-10-09T06:02:39.103Z,20.85
2018-10-09T06:05:07.883Z,21.97
2018-10-09T06:07:36.896Z,21.52
2018-10-09T06:10:05.204Z,21.40
2018-10-09T06:12:33.579Z,21.70
2018-10-09T06:15:01.976Z,22.95
2018-10-09T06:17:30.347Z,23.02
2018-10-09T06:19:58.720Z,22.80
2018-10-09T06:22:27.136Z,22.27
2018-10-09T06:24:55.477Z,21.60
2018-10-09T06:27:23.865Z,23.67
2018-10-09T06:29:52.145Z,23.70
2018-10-09T06:32:21.060Z,23.90
2018-10-09T06:34:49.513Z,24.90
2018-10-09T06:37:17.889Z,22.67
2018-10-09T06:39:47.244Z,25.37
2018-10-09T06:42:15.625Z,25.03
2018-10-09T06:44:44.452Z,23.00
2018-10-09T06:47:12.723Z,23.20
2018-10-09T06:49:41.129Z,22.13
2018-10-09T06:52:09.392Z,19.83
2018-10-09T06:54:37.977Z,21.30
2018-10-09T06:57:06.265Z,20.20
2018-10-09T06:59:35.722Z,21.77
2018-10-09T07:02:03.852Z,21.20
2018-10-09T07:04:32.182Z,21.43
2018-10-09T07:07:00.405Z,23.30
2018-10-09T07:09:28.744Z,20.00
2018-10-09T07:11:57.700Z,21.93
2018-10-09T07:14:26.012Z,20.80
2018-10-09T07:16:54.613Z,22.43
2018-10-09T07:19:22.806Z,21.47
2018-10-09T07:21:51.149Z,23.30
2018-10-09T07:24:19.644Z,23.37
2018-10-09T07:26:48.459Z,22.73
2018-10-09T07:29:16.603Z,22.73
2018-10-09T07:31:44.769Z,22.20
2018-10-09T07:34:12.816Z,20.43
2018-10-09T07:36:41.530Z,19.57
2018-10-09T07:39:12.289Z,20.67
2018-10-09T07:41:41.039Z,18.23
2018-10-09T07:44:09.143Z,14.97
2018-10-09T07:46:37.331Z,15.07
2018-10-09T07:49:05.483Z,11.47
2018-10-09T07:51:33.993Z,12.23
2018-10-09T07:54:02.315Z,12.93
2018-10-09T07:56:30.783Z,13.53
2018-10-09T07:58:59.043Z,11.77
2018-10-09T08:01:27.452Z,8.90
2018-10-09T08:03:55.749Z,8.20
2018-10-09T08:06:24.213Z,8.53
2018-10-09T08:08:52.557Z,8.10
2018-10-09T08:11:20.856Z,6.57
2018-10-09T08:13:49.245Z,7.20
2018-10-09T08:16:17.472Z,7.27
2018-10-09T08:18:46.086Z,8.03
2018-10-09T08:21:14.497Z,8.50
2018-10-09T08:23:42.963Z,9.33
2018-10-09T08:26:11.735Z,7.67
2018-10-09T08:28:39.923Z,8.50
2018-10-09T08:31:08.179Z,7.43
2018-10-09T08:33:36.901Z,9.17
2018-10-09T08:36:05.264Z,7.17
2018-10-09T08:38:33.567Z,6.17
2018-10-09T08:41:02.132Z,5.77
2018-10-09T08:43:31.391Z,5.80
2018-10-09T08:45:59.701Z,5.37
2018-10-09T08:48:27.976Z,6.07
2018-10-09T08:50:55.935Z,6.30
2018-10-09T08:53:24.352Z,6.37
2018-10-09T08:55:52.606Z,5.60
2018-10-09T08:58:20.569Z,5.00
2018-10-09T09:00:49.272Z,5.30
2018-10-09T09:03:17.346Z,4.27
2018-10-09T09:05:45.313Z,4.63
2018-10-09T09:08:13.260Z,5.03
2018-10-09T09:10:41.229Z,4.10
2018-10-09T09:13:09.224Z,4.90
2018-10-09T09:15:37.492Z,4.60
2018-10-09T09:18:05.552Z,4.67
2018-10-09T09:20:34.187Z,5.40
2018-10-09T09:23:02.288Z,5.10
2018-10-09T09:25:30.600Z,4.90
2018-10-09T09:28:00.118Z,5.77
2018-10-09T09:30:28.559Z,4.30
2018-10-09T09:32:56.752Z,3.90
2018-10-09T09:35:25.212Z,3.63
2018-10-09T09:37:53.737Z,3.77
2018-10-09T09:40:21.880Z,4.10
2018-10-09T09:42:50.229Z,3.70
2018-10-09T09:45:18.242Z,4.30
2018-10-09T09:47:46.756Z,4.10
2018-10-09T09:50:16.009Z,3.13
2018-10-09T09:52:44.088Z,3.37
2018-10-09T09:55:12.056Z,3.33
2018-10-09T09:57:40.224Z,3.73
2018-10-09T10:01:11.651Z,3.13
2018-10-09T10:03:40.994Z,4.20
2018-10-09T10:06:09.293Z,3.53
2018-10-09T10:08:38.057Z,3.37
2018-10-09T10:11:06.807Z,3.80
2018-10-09T10:13:35.616Z,3.67
2018-10-09T10:16:04.469Z,3.80
2018-10-09T10:18:32.790Z,3.77
2018-10-09T10:21:00.777Z,3.97
2018-10-09T10:23:29.243Z,3.70
2018-10-09T10:25:57.912Z,3.30
2018-10-09T10:28:26.308Z,4.90
2018-10-09T10:30:54.715Z,3.80
2018-10-09T10:33:23.136Z,3.70
2018-10-09T10:35:51.324Z,3.57
2018-10-09T10:38:19.580Z,3.20
2018-10-09T10:40:48.337Z,4.17
2018-10-09T10:43:16.569Z,3.90
2018-10-09T10:45:45.065Z,3.67
2018-10-09T10:48:13.217Z,4.17
2018-10-09T10:50:41.768Z,4.03
2018-10-09T10:53:10.319Z,4.00
2018-10-09T10:55:38.471Z,4.30
2018-10-09T10:58:07.147Z,4.97
2018-10-09T11:00:35.837Z,4.80
2018-10-09T11:03:04.720Z,4.67
2018-10-09T11:05:33.208Z,4.37
2018-10-09T11:08:02.016Z,3.93
2018-10-09T11:10:30.286Z,4.40
2018-10-09T11:12:59.468Z,4.03
2018-10-09T11:15:28.563Z,3.63
2018-10-09T11:17:56.550Z,4.20
2018-10-09T11:20:25.112Z,4.00
2018-10-09T11:22:53.404Z,4.77
2018-10-09T11:25:21.828Z,4.30
2018-10-09T11:27:50.041Z,3.83
2018-10-09T11:30:19.331Z,3.80
2018-10-09T11:32:47.613Z,5.40
2018-10-09T11:35:16.631Z,4.80
2018-10-09T11:37:44.683Z,4.20
2018-10-09T11:40:12.971Z,4.83
2018-10-09T11:42:41.426Z,4.20
2018-10-09T11:45:09.954Z,3.90
2018-10-09T11:47:37.888Z,3.43
2018-10-09T11:50:06.603Z,4.60
2018-10-09T11:52:34.629Z,4.00
2018-10-09T11:55:02.964Z,3.20
2018-10-09T11:57:31.684Z,3.27
2018-10-09T11:59:59.994Z,3.50
2018-10-09T12:02:28.674Z,3.50
2018-10-09T12:04:56.945Z,3.70
2018-10-09T12:07:25.440Z,3.37
2018-10-09T12:09:53.620Z,3.70
2018-10-09T12:12:21.794Z,3.50
2018-10-09T12:14:50.163Z,2.90
2018-10-09T12:17:18.703Z,3.80
2018-10-09T12:19:46.891Z,3.10
2018-10-09T12:22:14.944Z,3.17
2018-10-09T12:24:43.162Z,3.10
2018-10-09T12:27:12.327Z,3.80
2018-10-09T12:29:40.431Z,3.87
2018-10-09T12:32:09.208Z,3.30
2018-10-09T12:34:37.771Z,3.33
2018-10-09T12:37:06.904Z,3.17
2018-10-09T12:39:35.283Z,3.40
2018-10-09T12:42:03.982Z,3.53
2018-10-09T12:44:32.384Z,3.10
2018-10-09T12:47:00.745Z,4.00
2018-10-09T12:49:29.561Z,3.43
2018-10-09T12:51:57.733Z,3.27
2018-10-09T12:54:26.253Z,3.10
2018-10-09T12:56:54.344Z,3.30
2018-10-09T12:59:22.618Z,3.63
2018-10-09T13:01:50.993Z,3.13
2018-10-09T13:04:19.379Z,3.40
2018-10-09T13:06:47.670Z,3.70
2018-10-09T13:09:16.204Z,5.07
2018-10-09T13:11:44.376Z,3.40
2018-10-09T13:14:12.683Z,2.93
2018-10-09T13:16:40.982Z,2.83
2018-10-09T13:19:09.933Z,3.40
2018-10-09T13:21:39.619Z,3.07
2018-10-09T13:24:08.115Z,3.33
2018-10-09T13:26:36.467Z,3.43
2018-10-09T13:29:05.301Z,3.13
2018-10-09T13:31:34.079Z,3.87
2018-10-09T13:34:02.471Z,3.40
2018-10-09T13:36:30.626Z,3.30
2018-10-09T13:38:58.833Z,4.43
2018-10-09T13:41:27.489Z,3.70
2018-10-09T13:43:55.947Z,3.27
2018-10-09T13:46:24.152Z,3.53
2018-10-09T13:48:52.621Z,3.60
2018-10-09T13:51:20.662Z,4.10
2018-10-09T13:53:48.992Z,3.10
2018-10-09T13:56:17.460Z,4.13
2018-10-09T13:58:45.721Z,3.17
2018-10-09T14:01:13.771Z,3.60
2018-10-09T14:03:42.082Z,3.40
2018-10-09T14:06:10.306Z,4.00
2018-10-09T14:08:38.353Z,4.10
2018-10-09T14:11:07.955Z,3.73
2018-10-09T14:13:36.423Z,4.10
2018-10-09T14:16:04.694Z,4.60
2018-10-09T14:18:33.237Z,4.57
2018-10-09T14:21:01.432Z,3.60
2018-10-09T14:23:29.921Z,3.87
2018-10-09T14:25:58.400Z,4.83
2018-10-09T14:28:26.801Z,3.33
2018-10-09T14:30:54.993Z,3.80
2018-10-09T14:33:23.348Z,3.60
2018-10-09T14:35:51.912Z,4.57
2018-10-09T14:38:20.076Z,4.37
2018-10-09T14:40:48.869Z,3.60
2018-10-09T14:43:16.780Z,4.50
2018-10-09T14:45:45.379Z,3.97
2018-10-09T14:48:14.021Z,4.50
2018-10-09T14:50:42.411Z,3.70
2018-10-09T14:53:11.120Z,3.70
2018-10-09T14:55:39.692Z,4.00
2018-10-09T14:58:08.449Z,4.13
2018-10-09T15:00:37.211Z,3.50
2018-10-09T15:03:05.440Z,4.10
2018-10-09T15:05:33.905Z,4.90
2018-10-09T15:08:02.572Z,4.70
2018-10-09T15:10:30.857Z,5.80
2018-10-09T15:12:59.549Z,4.77
2018-10-09T15:15:27.907Z,5.03
2018-10-09T15:17:56.232Z,4.60
2018-10-09T15:20:24.773Z,5.33
2018-10-09T15:22:53.491Z,4.93
2018-10-09T15:25:21.843Z,5.33
2018-10-09T15:27:50.108Z,4.70
2018-10-09T15:30:18.615Z,4.63
2018-10-09T15:32:46.874Z,4.63
2018-10-09T15:35:17.011Z,4.60
2018-10-09T15:37:45.283Z,4.90
2018-10-09T15:40:13.644Z,5.13
2018-10-09T15:42:42.055Z,4.37
2018-10-09T15:45:10.510Z,4.13
2018-10-09T15:47:38.684Z,4.33
2018-10-09T15:50:07.057Z,5.60
2018-10-09T15:52:35.509Z,5.20
2018-10-09T15:55:03.809Z,4.70
2018-10-09T15:57:31.891Z,5.60
2018-10-09T16:00:00.380Z,6.28
2018-10-09T16:02:28.755Z,5.58
2018-10-09T16:04:57.041Z,6.72
2018-10-09T16:07:24.980Z,6.03
2018-10-09T16:09:53.279Z,6.55
2018-10-09T16:12:21.535Z,7.00
2018-10-09T16:14:49.517Z,6.20
2018-10-09T16:17:17.829Z,6.17
2018-10-09T16:19:46.067Z,7.72
2018-10-09T16:22:14.408Z,6.30
2018-10-09T16:24:42.501Z,6.55
2018-10-09T16:27:10.984Z,6.97
2018-10-09T16:29:39.374Z,6.28
2018-10-09T16:32:07.641Z,8.18
2018-10-09T16:34:36.244Z,6.72
2018-10-09T16:37:04.799Z,6.97
2018-10-09T16:39:33.213Z,7.30
2018-10-09T16:42:01.516Z,7.03
2018-10-09T16:44:30.740Z,7.05
2018-10-09T16:47:03.503Z,6.97
2018-10-09T16:49:34.051Z,8.03
2018-10-09T16:52:02.492Z,9.35
2018-10-09T16:54:30.841Z,9.23
2018-10-09T16:56:59.485Z,9.00
2018-10-09T16:59:27.748Z,10.13
2018-10-09T17:01:56.068Z,9.28
2018-10-09T17:04:24.468Z,15.95
2018-10-09T17:06:52.783Z,14.70
2018-10-09T17:09:20.985Z,23.57
2018-10-09T17:11:49.688Z,23.25
2018-10-09T17:14:18.509Z,21.52
2018-10-09T17:16:46.726Z,24.65
2018-10-09T17:19:15.125Z,24.00
2018-10-09T17:21:43.088Z,24.95
2018-10-09T17:24:11.345Z,23.42
2018-10-09T17:26:40.085Z,22.27
2018-10-09T17:29:08.442Z,23.07
2018-10-09T17:31:36.830Z,27.60
2018-10-09T17:34:04.975Z,29.12
2018-10-09T17:36:33.181Z,32.88
2018-10-09T17:39:01.650Z,32.55
2018-10-09T17:41:30.359Z,30.52
2018-10-09T17:43:58.496Z,31.12
2018-10-09T17:46:27.165Z,31.75
2018-10-09T17:48:55.263Z,30.08
2018-10-09T17:51:23.732Z,32.15
2018-10-09T17:53:51.840Z,29.72
2018-10-09T17:56:20.288Z,31.25
2018-10-09T17:58:48.704Z,32.35
2018-10-09T18:01:17.677Z,32.78
2018-10-09T18:03:46.008Z,34.35
2018-10-09T18:06:14.378Z,35.25
2018-10-09T18:08:43.068Z,34.80
2018-10-09T18:11:11.544Z,32.35
2018-10-09T18:13:41.124Z,32.55
2018-10-09T18:16:09.572Z,34.13
2018-10-09T18:18:37.664Z,32.42
2018-10-09T18:21:06.172Z,31.85
2018-10-09T18:23:34.672Z,35.85
2018-10-09T18:26:03.041Z,37.10
2018-10-09T18:28:31.271Z,37.75
2018-10-09T18:30:59.932Z,45.28
2018-10-09T18:33:27.939Z,45.28
2018-10-09T18:35:56.408Z,39.95
2018-10-09T18:38:24.680Z,34.08
2018-10-09T18:40:53.200Z,33.85
2018-10-09T18:43:21.640Z,27.90
2018-10-09T18:45:49.884Z,27.50
2018-10-09T18:48:18.399Z,21.40
2018-10-09T18:50:46.659Z,21.42
2018-10-09T18:53:15.666Z,17.30
2018-10-09T18:55:44.059Z,17.98
2018-10-09T18:58:12.121Z,15.30
2018-10-09T19:00:40.624Z,14.50
2018-10-09T19:03:08.981Z,15.45
2018-10-09T19:05:37.105Z,15.32
2018-10-09T19:08:05.336Z,16.05
2018-10-09T19:10:33.787Z,17.07
2018-10-09T19:13:02.347Z,16.70
2018-10-09T19:15:30.544Z,17.02
2018-10-09T19:17:59.345Z,17.10
2018-10-09T19:20:27.676Z,17.62
2018-10-09T19:22:55.907Z,17.92
2018-10-09T19:25:24.281Z,17.40
2018-10-09T19:27:52.639Z,18.95
2018-10-09T19:30:21.148Z,19.60
2018-10-09T19:32:49.673Z,17.65
2018-10-09T19:35:17.892Z,18.12
2018-10-09T19:37:46.141Z,17.00
2018-10-09T19:40:14.400Z,16.82
2018-10-09T19:42:42.730Z,18.48
2018-10-09T19:45:11.389Z,18.25
2018-10-09T19:47:39.801Z,19.65
2018-10-09T19:50:08.764Z,20.05
2018-10-09T19:52:37.279Z,21.17
2018-10-09T19:55:06.031Z,21.73
2018-10-09T19:57:34.525Z,27.67
2018-10-09T20:00:03.482Z,26.80
2018-10-09T20:02:31.364Z,25.43
2018-10-09T20:05:00.048Z,27.13
2018-10-09T20:07:28.257Z,28.40
2018-10-09T20:09:56.625Z,26.37
2018-10-09T20:12:25.131Z,26.42
2018-10-09T20:14:53.853Z,26.85
2018-10-09T20:17:22.141Z,27.45
2018-10-09T20:19:50.421Z,27.22
2018-10-09T20:22:18.511Z,28.57
2018-10-09T20:24:46.992Z,29.80
2018-10-09T20:27:15.153Z,28.60
2018-10-09T20:29:44.914Z,28.52
2018-10-09T20:32:13.285Z,27.98
2018-10-09T20:34:41.797Z,27.48
2018-10-09T20:37:09.900Z,27.27
2018-10-09T20:39:38.058Z,27.50
2018-10-09T20:42:06.559Z,27.90
2018-10-09T20:44:34.928Z,26.97
2018-10-09T20:47:04.092Z,26.90
2018-10-09T20:49:32.216Z,29.20
2018-10-09T20:52:00.308Z,27.10
2018-10-09T20:54:28.701Z,30.88
2018-10-09T20:56:57.552Z,29.85
2018-10-09T21:00:29.128Z,28.23
2018-10-09T21:02:57.516Z,31.57
2018-10-09T21:05:26.162Z,29.12
2018-10-09T21:07:54.588Z,31.27
2018-10-09T21:10:22.778Z,30.82
2018-10-09T21:12:51.443Z,32.45
2018-10-09T21:15:20.349Z,30.43
2018-10-09T21:17:48.784Z,30.35
2018-10-09T21:20:16.983Z,28.50
2018-10-09T21:22:45.309Z,30.32
2018-10-09T21:25:14.125Z,31.27
2018-10-09T21:27:42.183Z,30.88
2018-10-09T21:30:10.385Z,29.05
2018-10-09T21:32:38.649Z,30.15
2018-10-09T21:35:07.523Z,30.15
2018-10-09T21:37:36.000Z,31.75
2018-10-09T21:40:03.979Z,32.50
2018-10-09T21:42:32.360Z,32.10
2018-10-09T21:45:01.150Z,32.38
2018-10-09T21:47:29.550Z,31.23
2018-10-09T21:49:58.207Z,32.10
2018-10-09T21:52:26.532Z,31.05
2018-10-09T21:54:54.855Z,32.70
2018-10-09T21:57:23.559Z,31.15
2018-10-09T21:59:52.070Z,28.85
2018-10-09T22:02:20.405Z,27.45
2018-10-09T22:04:49.151Z,27.67
2018-10-09T22:07:18.474Z,28.20
2018-10-09T22:09:46.849Z,26.68
2018-10-09T22:12:14.951Z,26.70
2018-10-09T22:14:43.408Z,25.02
2018-10-09T22:17:11.624Z,29.40
2018-10-09T22:19:40.008Z,27.45
2018-10-09T22:22:08.184Z,28.17
2018-10-09T22:24:36.493Z,29.02
2018-10-09T22:27:04.707Z,27.93
2018-10-09T22:29:32.993Z,28.27
2018-10-09T22:32:01.156Z,30.62
2018-10-09T22:34:29.698Z,29.20
2018-10-09T22:36:57.907Z,27.80
2018-10-09T22:39:26.285Z,30.10
2018-10-09T22:41:55.205Z,31.05
2018-10-09T22:44:23.275Z,34.40
2018-10-09T22:46:51.540Z,39.25
2018-10-09T22:49:19.912Z,41.20
2018-10-09T22:51:48.353Z,40.38
2018-10-09T22:54:16.991Z,40.20
2018-10-09T22:56:45.564Z,41.95
2018-10-09T22:59:13.852Z,39.35
2018-10-09T23:01:42.323Z,40.55
2018-10-09T23:04:11.241Z,39.63
2018-10-09T23:06:39.821Z,42.45
2018-10-09T23:09:09.872Z,40.40
2018-10-09T23:11:38.077Z,42.48
2018-10-09T23:14:06.530Z,42.75
2018-10-09T23:16:34.918Z,39.53
2018-10-09T23:19:03.182Z,40.15
2018-10-09T23:21:31.903Z,42.25
2018-10-09T23:24:00.967Z,41.92
2018-10-09T23:26:29.530Z,42.43
2018-10-09T23:28:58.275Z,41.42
2018-10-09T23:31:26.597Z,41.68
2018-10-09T23:33:54.910Z,38.58
2018-10-09T23:36:23.411Z,38.70
2018-10-09T23:38:51.817Z,37.80
2018-10-09T23:41:19.977Z,38.33
2018-10-09T23:43:48.567Z,39.58
2018-10-09T23:46:16.784Z,39.18
2018-10-09T23:48:45.210Z,38.38
2018-10-09T23:51:13.687Z,40.60
2018-10-09T23:53:41.952Z,38.25
2018-10-09T23:56:10.484Z,37.88
2018-10-09T23:58:39.413Z,37.98
